sensor_id;sensor_type;location;lat;lon;timestamp;pressure;altitude;pressure_sealevel;temperature;humidity
54122;BME280;40029;58.708;50.190;2023-05-08T00:00:48;100819.09;;;3.11;47.60
54122;BME280;40029;58.708;50.190;2023-05-08T00:03:19;100804.44;;;3.04;47.26
54122;BME280;40029;58.708;50.190;2023-05-08T00:05:50;100801.78;;;2.96;47.23
54122;BME280;40029;58.708;50.190;2023-05-08T00:08:22;100766.44;;;2.77;48.24
54122;BME280;40029;58.708;50.190;2023-05-08T00:11:11;100806.03;;;2.92;47.17
54122;BME280;40029;58.708;50.190;2023-05-08T00:13:43;100725.75;;;2.39;47.70
54122;BME280;40029;58.708;50.190;2023-05-08T00:16:14;100759.38;;;2.56;47.74
54122;BME280;40029;58.708;50.190;2023-05-08T00:18:45;100823.28;;;2.98;48.03
54122;BME280;40029;58.708;50.190;2023-05-08T00:21:16;100751.69;;;2.62;47.99
54122;BME280;40029;58.708;50.190;2023-05-08T00:23:48;100817.19;;;2.93;47.64
54122;BME280;40029;58.708;50.190;2023-05-08T00:26:19;100829.19;;;2.92;47.87
54122;BME280;40029;58.708;50.190;2023-05-08T00:28:51;100766.31;;;2.64;48.21
54122;BME280;40029;58.708;50.190;2023-05-08T00:31:22;100809.38;;;2.84;48.00
54122;BME280;40029;58.708;50.190;2023-05-08T00:33:54;100820.63;;;2.92;47.44
54122;BME280;40029;58.708;50.190;2023-05-08T00:36:25;100767.16;;;2.65;48.04
54122;BME280;40029;58.708;50.190;2023-05-08T00:38:57;100774.97;;;2.75;48.12
54122;BME280;40029;58.708;50.190;2023-05-08T00:41:28;100827.47;;;2.93;48.01
54122;BME280;40029;58.708;50.190;2023-05-08T00:43:59;100818.94;;;2.97;47.48
54122;BME280;40029;58.708;50.190;2023-05-08T00:46:49;100812.13;;;2.97;47.53
54122;BME280;40029;58.708;50.190;2023-05-08T00:49:22;100824.09;;;2.94;47.59
54122;BME280;40029;58.708;50.190;2023-05-08T00:51:54;100762.03;;;2.66;48.04
54122;BME280;40029;58.708;50.190;2023-05-08T00:54:26;100775.78;;;2.70;48.09
54122;BME280;40029;58.708;50.190;2023-05-08T00:56:59;100766.31;;;2.66;47.59
54122;BME280;40029;58.708;50.190;2023-05-08T00:59:30;100835.28;;;3.00;47.95
54122;BME280;40029;58.708;50.190;2023-05-08T01:02:02;100818.09;;;2.95;47.90
54122;BME280;40029;58.708;50.190;2023-05-08T01:04:35;100769.72;;;2.63;48.12
54122;BME280;40029;58.708;50.190;2023-05-08T01:07:07;100820.63;;;2.92;48.10
54122;BME280;40029;58.708;50.190;2023-05-08T01:09:38;100781.91;;;2.81;47.69
54122;BME280;40029;58.708;50.190;2023-05-08T01:29:56;100846.00;;;3.45;46.95
54122;BME280;40029;58.708;50.190;2023-05-08T01:33:00;100831.34;;;3.38;46.92
54122;BME280;40029;58.708;50.190;2023-05-08T01:39:12;100830.53;;;3.43;45.65
54122;BME280;40029;58.708;50.190;2023-05-08T01:41:49;100767.59;;;3.12;46.32
54122;BME280;40029;58.708;50.190;2023-05-08T01:44:27;100825.47;;;3.54;46.55
54122;BME280;40029;58.708;50.190;2023-05-08T01:47:06;100845.28;;;3.61;46.93
54122;BME280;40029;58.708;50.190;2023-05-08T01:50:05;100842.72;;;3.63;46.56
54122;BME280;40029;58.708;50.190;2023-05-08T01:52:55;100838.53;;;3.80;45.82
54122;BME280;40029;58.708;50.190;2023-05-08T01:55:36;100837.69;;;3.81;46.39
54122;BME280;40029;58.708;50.190;2023-05-08T01:58:09;100833.34;;;3.74;46.17
54122;BME280;40029;58.708;50.190;2023-05-08T02:00:42;100788.50;;;3.52;46.45
54122;BME280;40029;58.708;50.190;2023-05-08T02:03:15;100824.78;;;3.81;46.02
54122;BME280;40029;58.708;50.190;2023-05-08T02:05:48;100793.75;;;3.64;46.38
54122;BME280;40029;58.708;50.190;2023-05-08T02:08:22;100850.66;;;3.95;46.18
54122;BME280;40029;58.708;50.190;2023-05-08T02:10:55;100814.47;;;3.80;45.59
54122;BME280;40029;58.708;50.190;2023-05-08T02:13:29;100843.81;;;3.97;45.94
54122;BME280;40029;58.708;50.190;2023-05-08T02:16:02;100846.38;;;3.97;44.12
54122;BME280;40029;58.708;50.190;2023-05-08T02:18:53;100851.63;;;4.09;44.89
54122;BME280;40029;58.708;50.190;2023-05-08T02:21:27;100812.84;;;3.94;45.24
54122;BME280;40029;58.708;50.190;2023-05-08T02:23:59;100766.38;;;3.79;44.92
54122;BME280;40029;58.708;50.190;2023-05-08T02:26:31;100850.81;;;4.24;45.20
54122;BME280;40029;58.708;50.190;2023-05-08T02:29:04;100799.13;;;4.01;44.89
54122;BME280;40029;58.708;50.190;2023-05-08T02:31:36;100853.44;;;4.30;44.64
54122;BME280;40029;58.708;50.190;2023-05-08T02:34:09;100864.69;;;4.43;44.71
54122;BME280;40029;58.708;50.190;2023-05-08T02:36:41;100847.41;;;4.33;45.41
54122;BME280;40029;58.708;50.190;2023-05-08T02:39:14;100813.00;;;4.21;44.45
54122;BME280;40029;58.708;50.190;2023-05-08T02:41:47;100812.94;;;4.15;45.04
54122;BME280;40029;58.708;50.190;2023-05-08T02:44:19;100830.22;;;4.25;44.43
54122;BME280;40029;58.708;50.190;2023-05-08T02:47:00;100825.88;;;4.23;44.28
54122;BME280;40029;58.708;50.190;2023-05-08T02:52:38;100857.00;;;4.57;43.50
54122;BME280;40029;58.708;50.190;2023-05-08T03:01:06;100890.66;;;4.81;43.68
54122;BME280;40029;58.708;50.190;2023-05-08T03:03:50;100832.06;;;4.62;43.72
54122;BME280;40029;58.708;50.190;2023-05-08T03:06:23;100887.25;;;4.91;44.08
54122;BME280;40029;58.708;50.190;2023-05-08T03:08:59;100841.56;;;4.69;43.97
54122;BME280;40029;58.708;50.190;2023-05-08T03:11:44;100871.78;;;5.02;43.37
54122;BME280;40029;58.708;50.190;2023-05-08T03:14:19;100884.66;;;4.91;43.15
54122;BME280;40029;58.708;50.190;2023-05-08T03:16:54;100859.59;;;4.63;43.42
54122;BME280;40029;58.708;50.190;2023-05-08T03:19:29;100901.84;;;4.86;42.28
54122;BME280;40029;58.708;50.190;2023-05-08T03:22:20;100850.97;;;4.58;43.44
54122;BME280;40029;58.708;50.190;2023-05-08T03:24:52;100868.25;;;4.79;43.42
54122;BME280;40029;58.708;50.190;2023-05-08T03:27:28;100891.59;;;5.01;43.33
54122;BME280;40029;58.708;50.190;2023-05-08T03:30:01;100841.56;;;4.67;42.97
54122;BME280;40029;58.708;50.190;2023-05-08T03:32:38;100898.50;;;5.18;42.73
54122;BME280;40029;58.708;50.190;2023-05-08T03:35:10;100854.50;;;4.87;42.02
54122;BME280;40029;58.708;50.190;2023-05-08T03:37:41;100908.00;;;5.37;42.93
54122;BME280;40029;58.708;50.190;2023-05-08T03:40:33;100906.28;;;5.29;41.94
54122;BME280;40029;58.708;50.190;2023-05-08T03:43:24;100920.94;;;5.42;41.64
54122;BME280;40029;58.708;50.190;2023-05-08T03:45:56;100889.03;;;5.26;42.05
54122;BME280;40029;58.708;50.190;2023-05-08T03:48:31;100870.91;;;5.00;41.32
54122;BME280;40029;58.708;50.190;2023-05-08T03:51:04;100890.75;;;5.30;42.02
54122;BME280;40029;58.708;50.190;2023-05-08T03:53:38;100933.88;;;5.51;42.00
54122;BME280;40029;58.708;50.190;2023-05-08T03:56:09;100917.50;;;5.60;41.55
54122;BME280;40029;58.708;50.190;2023-05-08T03:58:46;100922.69;;;5.69;41.24
54122;BME280;40029;58.708;50.190;2023-05-08T04:01:26;100925.25;;;5.69;40.45
54122;BME280;40029;58.708;50.190;2023-05-08T04:04:10;100913.22;;;5.80;39.88
54122;BME280;40029;58.708;50.190;2023-05-08T04:07:02;100932.22;;;6.00;39.10
54122;BME280;40029;58.708;50.190;2023-05-08T04:10:52;100886.47;;;5.89;38.17
54122;BME280;40029;58.708;50.190;2023-05-08T04:15:41;100885.63;;;6.20;38.48
54122;BME280;40029;58.708;50.190;2023-05-08T04:18:16;100883.03;;;6.13;38.73
54122;BME280;40029;58.708;50.190;2023-05-08T04:20:49;100869.19;;;6.28;38.65
54122;BME280;40029;58.708;50.190;2023-05-08T04:23:25;100932.09;;;6.56;38.07
54122;BME280;40029;58.708;50.190;2023-05-08T04:26:00;100895.94;;;6.31;36.84
54122;BME280;40029;58.708;50.190;2023-05-08T04:28:33;100900.19;;;6.47;38.10
54122;BME280;40029;58.708;50.190;2023-05-08T04:31:05;100940.75;;;6.44;37.40
54122;BME280;40029;58.708;50.190;2023-05-08T04:33:38;100929.50;;;6.60;37.89
54122;BME280;40029;58.708;50.190;2023-05-08T04:36:13;100879.50;;;6.40;37.51
54122;BME280;40029;58.708;50.190;2023-05-08T04:38:46;100940.50;;;7.14;37.50
54122;BME280;40029;58.708;50.190;2023-05-08T04:41:18;100891.41;;;6.85;38.03
54122;BME280;40029;58.708;50.190;2023-05-08T04:43:52;100905.22;;;6.89;37.28
54122;BME280;40029;58.708;50.190;2023-05-08T04:46:24;100951.75;;;7.10;36.51
54122;BME280;40029;58.708;50.190;2023-05-08T04:48:56;100890.63;;;6.66;35.63
54122;BME280;40029;58.708;50.190;2023-05-08T04:51:27;100859.66;;;6.39;37.06
54122;BME280;40029;58.708;50.190;2023-05-08T04:54:00;100954.34;;;7.12;36.87
54122;BME280;40029;58.708;50.190;2023-05-08T04:56:32;100903.47;;;6.88;37.34
54122;BME280;40029;58.708;50.190;2023-05-08T04:59:04;100949.13;;;7.18;36.89
54122;BME280;40029;58.708;50.190;2023-05-08T05:01:55;100932.69;;;7.23;35.80
54122;BME280;40029;58.708;50.190;2023-05-08T05:04:26;100932.63;;;7.33;36.31
54122;BME280;40029;58.708;50.190;2023-05-08T05:07:16;100941.19;;;7.45;35.87
54122;BME280;40029;58.708;50.190;2023-05-08T05:09:48;100951.34;;;7.73;36.04
54122;BME280;40029;58.708;50.190;2023-05-08T05:12:19;100902.50;;;7.09;36.16
54122;BME280;40029;58.708;50.190;2023-05-08T05:14:50;100962.78;;;7.49;36.26
54122;BME280;40029;58.708;50.190;2023-05-08T05:17:21;100920.44;;;7.42;36.22
54122;BME280;40029;58.708;50.190;2023-05-08T05:19:52;100910.91;;;7.49;35.04
54122;BME280;40029;58.708;50.190;2023-05-08T05:22:24;100908.31;;;7.47;35.47
54122;BME280;40029;58.708;50.190;2023-05-08T05:24:56;100913.50;;;7.49;35.84
54122;BME280;40029;58.708;50.190;2023-05-08T05:27:29;100972.88;;;7.90;35.74
54122;BME280;40029;58.708;50.190;2023-05-08T05:30:01;100953.94;;;7.76;34.88
54122;BME280;40029;58.708;50.190;2023-05-08T05:32:37;100927.22;;;7.63;35.00
54122;BME280;40029;58.708;50.190;2023-05-08T05:35:26;100963.53;;;7.65;34.95
54122;BME280;40029;58.708;50.190;2023-05-08T05:37:59;100918.69;;;7.46;35.57
54122;BME280;40029;58.708;50.190;2023-05-08T05:40:31;100932.53;;;7.46;35.24
54122;BME280;40029;58.708;50.190;2023-05-08T05:43:02;100928.31;;;7.29;35.69
54122;BME280;40029;58.708;50.190;2023-05-08T05:45:34;100975.78;;;7.38;35.18
54122;BME280;40029;58.708;50.190;2023-05-08T05:48:06;100976.63;;;7.48;35.45
54122;BME280;40029;58.708;50.190;2023-05-08T05:50:39;100971.44;;;7.42;35.37
54122;BME280;40029;58.708;50.190;2023-05-08T05:53:10;100938.66;;;7.36;35.59
54122;BME280;40029;58.708;50.190;2023-05-08T05:55:41;100939.50;;;7.40;35.25
54122;BME280;40029;58.708;50.190;2023-05-08T05:58:12;100956.59;;;7.67;35.10
54122;BME280;40029;58.708;50.190;2023-05-08T06:00:43;100985.75;;;8.01;35.00
54122;BME280;40029;58.708;50.190;2023-05-08T06:03:14;100906.38;;;7.75;35.28
54122;BME280;40029;58.708;50.190;2023-05-08T06:05:46;101000.88;;;8.55;33.96
54122;BME280;40029;58.708;50.190;2023-05-08T06:08:17;100991.50;;;8.37;34.92
54122;BME280;40029;58.708;50.190;2023-05-08T06:10:49;100991.25;;;8.64;33.95
54122;BME280;40029;58.708;50.190;2023-05-08T06:13:20;100986.78;;;8.77;33.84
54122;BME280;40029;58.708;50.190;2023-05-08T06:15:54;100995.81;;;8.41;33.83
54122;BME280;40029;58.708;50.190;2023-05-08T06:18:29;100943.44;;;7.90;34.18
54122;BME280;40029;58.708;50.190;2023-05-08T06:21:00;100948.28;;;8.33;33.27
54122;BME280;40029;58.708;50.190;2023-05-08T06:23:32;100972.47;;;8.38;33.76
54122;BME280;40029;58.708;50.190;2023-05-08T06:26:03;101015.59;;;8.56;33.50
54122;BME280;40029;58.708;50.190;2023-05-08T06:28:34;100961.59;;;7.91;33.82
54122;BME280;40029;58.708;50.190;2023-05-08T06:31:06;100961.44;;;8.13;33.86
54122;BME280;40029;58.708;50.190;2023-05-08T06:33:37;100958.78;;;8.17;33.89
54122;BME280;40029;58.708;50.190;2023-05-08T06:36:08;101013.09;;;8.43;33.80
54122;BME280;40029;58.708;50.190;2023-05-08T06:38:40;100964.16;;;7.96;34.89
54122;BME280;40029;58.708;50.190;2023-05-08T06:41:11;100969.28;;;8.02;33.74
54122;BME280;40029;58.708;50.190;2023-05-08T06:43:42;101001.84;;;8.46;33.21
54122;BME280;40029;58.708;50.190;2023-05-08T06:46:13;100990.91;;;8.04;32.71
54122;BME280;40029;58.708;50.190;2023-05-08T06:48:45;100957.41;;;7.78;33.66
54122;BME280;40029;58.708;50.190;2023-05-08T06:51:16;100983.22;;;7.95;33.52
54122;BME280;40029;58.708;50.190;2023-05-08T06:53:47;101035.81;;;8.15;34.08
54122;BME280;40029;58.708;50.190;2023-05-08T06:56:18;101035.56;;;8.49;33.31
54122;BME280;40029;58.708;50.190;2023-05-08T06:59:08;100990.53;;;8.50;33.44
54122;BME280;40029;58.708;50.190;2023-05-08T07:01:39;101018.22;;;8.54;32.36
54122;BME280;40029;58.708;50.190;2023-05-08T07:04:11;101022.25;;;8.81;32.85
54122;BME280;40029;58.708;50.190;2023-05-08T07:06:42;101037.81;;;8.86;32.02
54122;BME280;40029;58.708;50.190;2023-05-08T07:09:13;101023.81;;;8.97;32.09
54122;BME280;40029;58.708;50.190;2023-05-08T07:11:46;101040.06;;;9.16;32.26
54122;BME280;40029;58.708;50.190;2023-05-08T07:14:18;101004.00;;;8.89;31.34
54122;BME280;40029;58.708;50.190;2023-05-08T07:16:49;101056.81;;;8.89;30.54
54122;BME280;40029;58.708;50.190;2023-05-08T07:19:20;101039.75;;;8.62;29.56
54122;BME280;40029;58.708;50.190;2023-05-08T07:21:51;101050.97;;;8.66;30.29
54122;BME280;40029;58.708;50.190;2023-05-08T07:24:23;101021.47;;;8.73;28.95
54122;BME280;40029;58.708;50.190;2023-05-08T07:26:54;101034.22;;;8.97;27.51
54122;BME280;40029;58.708;50.190;2023-05-08T07:29:26;101040.97;;;9.14;26.73
54122;BME280;40029;58.708;50.190;2023-05-08T07:31:57;100952.78;;;8.97;26.43
54122;BME280;40029;58.708;50.190;2023-05-08T07:34:47;101019.72;;;9.49;26.19
54122;BME280;40029;58.708;50.190;2023-05-08T07:37:38;101035.38;;;9.44;25.34
54122;BME280;40029;58.708;50.190;2023-05-08T07:40:09;100987.34;;;9.05;26.42
54122;BME280;40029;58.708;50.190;2023-05-08T07:42:41;101027.72;;;9.32;26.08
54122;BME280;40029;58.708;50.190;2023-05-08T07:45:13;100998.50;;;9.12;25.92
54122;BME280;40029;58.708;50.190;2023-05-08T07:47:57;101003.59;;;9.21;25.90
54122;BME280;40029;58.708;50.190;2023-05-08T07:50:28;101031.16;;;9.36;25.19
54122;BME280;40029;58.708;50.190;2023-05-08T07:53:00;101045.69;;;9.52;25.35
54122;BME280;40029;58.708;50.190;2023-05-08T07:55:31;100994.69;;;9.40;24.25
54122;BME280;40029;58.708;50.190;2023-05-08T07:58:02;101047.38;;;9.56;24.69
54122;BME280;40029;58.708;50.190;2023-05-08T08:00:33;101009.75;;;9.14;23.37
54122;BME280;40029;58.708;50.190;2023-05-08T08:03:05;101003.00;;;8.99;23.47
54122;BME280;40029;58.708;50.190;2023-05-08T08:05:37;101053.63;;;9.41;23.20
54122;BME280;40029;58.708;50.190;2023-05-08T08:08:08;101012.41;;;9.09;22.35
54122;BME280;40029;58.708;50.190;2023-05-08T08:10:39;101015.97;;;9.02;22.67
54122;BME280;40029;58.708;50.190;2023-05-08T08:13:10;101044.28;;;9.26;22.35
54122;BME280;40029;58.708;50.190;2023-05-08T08:15:41;101052.03;;;9.31;22.84
54122;BME280;40029;58.708;50.190;2023-05-08T08:18:12;100968.44;;;8.91;23.09
54122;BME280;40029;58.708;50.190;2023-05-08T08:20:44;101042.00;;;8.96;23.40
54122;BME280;40029;58.708;50.190;2023-05-08T08:23:15;101059.97;;;9.19;23.16
54122;BME280;40029;58.708;50.190;2023-05-08T08:25:46;101016.09;;;8.90;23.49
54122;BME280;40029;58.708;50.190;2023-05-08T08:28:18;101038.84;;;9.45;22.82
54122;BME280;40029;58.708;50.190;2023-05-08T08:30:49;101063.28;;;9.32;23.54
54122;BME280;40029;58.708;50.190;2023-05-08T08:33:21;101015.06;;;9.06;23.62
54122;BME280;40029;58.708;50.190;2023-05-08T08:35:53;101059.13;;;9.18;23.91
54122;BME280;40029;58.708;50.190;2023-05-08T08:38:42;101081.66;;;9.16;23.58
54122;BME280;40029;58.708;50.190;2023-05-08T08:41:32;101092.75;;;9.32;23.64
54122;BME280;40029;58.708;50.190;2023-05-08T08:44:03;100978.97;;;8.80;22.73
54122;BME280;40029;58.708;50.190;2023-05-08T08:46:39;101084.88;;;9.40;22.85
54122;BME280;40029;58.708;50.190;2023-05-08T08:49:17;101082.41;;;9.27;23.01
54122;BME280;40029;58.708;50.190;2023-05-08T08:52:02;101076.91;;;9.52;22.66
54122;BME280;40029;58.708;50.190;2023-05-08T08:54:35;101088.97;;;9.58;23.23
54122;BME280;40029;58.708;50.190;2023-05-08T08:57:08;101039.13;;;9.20;22.29
54122;BME280;40029;58.708;50.190;2023-05-08T08:59:39;101087.31;;;9.52;21.31
54122;BME280;40029;58.708;50.190;2023-05-08T09:02:12;101082.19;;;9.47;21.12
54122;BME280;40029;58.708;50.190;2023-05-08T09:04:48;101066.38;;;9.61;21.01
54122;BME280;40029;58.708;50.190;2023-05-08T09:07:20;101081.19;;;9.55;20.84
54122;BME280;40029;58.708;50.190;2023-05-08T09:09:53;101049.19;;;9.49;20.45
54122;BME280;40029;58.708;50.190;2023-05-08T09:12:24;101078.81;;;10.01;20.61
54122;BME280;40029;58.708;50.190;2023-05-08T09:14:55;101069.38;;;9.95;20.75
54122;BME280;40029;58.708;50.190;2023-05-08T09:17:27;101073.84;;;9.18;21.39
54122;BME280;40029;58.708;50.190;2023-05-08T09:19:58;101054.81;;;9.14;21.92
54122;BME280;40029;58.708;50.190;2023-05-08T09:22:29;101102.41;;;9.21;22.96
54122;BME280;40029;58.708;50.190;2023-05-08T09:25:01;101097.19;;;9.21;22.57
54122;BME280;40029;58.708;50.190;2023-05-08T09:27:34;101074.75;;;9.12;22.56
54122;BME280;40029;58.708;50.190;2023-05-08T09:30:11;101059.31;;;8.98;22.62
54122;BME280;40029;58.708;50.190;2023-05-08T09:32:44;101047.81;;;9.19;22.28
54122;BME280;40029;58.708;50.190;2023-05-08T09:35:35;101075.81;;;9.70;22.27
54122;BME280;40029;58.708;50.190;2023-05-08T09:38:07;101062.53;;;9.90;21.49
54122;BME280;40029;58.708;50.190;2023-05-08T09:40:38;101124.00;;;9.97;21.68
54122;BME280;40029;58.708;50.190;2023-05-08T09:43:12;101069.09;;;9.52;22.24
54122;BME280;40029;58.708;50.190;2023-05-08T09:46:23;101121.84;;;9.63;22.44
54122;BME280;40029;58.708;50.190;2023-05-08T09:48:59;101079.56;;;9.46;22.69
54122;BME280;40029;58.708;50.190;2023-05-08T09:51:52;101109.75;;;9.59;23.22
54122;BME280;40029;58.708;50.190;2023-05-08T09:54:24;101068.28;;;9.48;23.53
54122;BME280;40029;58.708;50.190;2023-05-08T09:57:13;101064.41;;;9.11;24.55
54122;BME280;40029;58.708;50.190;2023-05-08T09:59:44;101107.97;;;9.64;23.46
54122;BME280;40029;58.708;50.190;2023-05-08T10:02:15;101120.25;;;9.53;23.32
54122;BME280;40029;58.708;50.190;2023-05-08T10:04:47;101065.84;;;9.33;22.88
54122;BME280;40029;58.708;50.190;2023-05-08T10:07:29;101114.72;;;9.79;22.54
54122;BME280;40029;58.708;50.190;2023-05-08T10:10:02;101110.28;;;9.87;22.79
54122;BME280;40029;58.708;50.190;2023-05-08T10:12:36;101114.38;;;10.02;22.21
54122;BME280;40029;58.708;50.190;2023-05-08T10:15:09;101080.81;;;9.84;21.72
54122;BME280;40029;58.708;50.190;2023-05-08T10:17:43;101084.56;;;10.23;20.29
54122;BME280;40029;58.708;50.190;2023-05-08T10:20:42;101111.81;;;10.59;21.09
54122;BME280;40029;58.708;50.190;2023-05-08T10:23:15;101062.63;;;10.41;20.75
54122;BME280;40029;58.708;50.190;2023-05-08T10:25:51;101097.19;;;11.00;19.56
54122;BME280;40029;58.708;50.190;2023-05-08T10:31:11;101116.31;;;11.45;19.12
54122;BME280;40029;58.708;50.190;2023-05-08T10:33:45;101090.56;;;10.84;20.32
54122;BME280;40029;58.708;50.190;2023-05-08T10:36:19;101087.19;;;10.77;20.63
54122;BME280;40029;58.708;50.190;2023-05-08T10:38:51;101141.72;;;10.35;21.98
54122;BME280;40029;58.708;50.190;2023-05-08T10:41:23;101140.72;;;9.81;23.72
54122;BME280;40029;58.708;50.190;2023-05-08T10:43:56;101148.59;;;9.77;24.63
54122;BME280;40029;58.708;50.190;2023-05-08T10:46:36;101094.00;;;9.73;24.78
54122;BME280;40029;58.708;50.190;2023-05-08T10:49:18;101143.03;;;10.02;24.35
54122;BME280;40029;58.708;50.190;2023-05-08T10:57:35;101081.53;;;9.95;21.65
54122;BME280;40029;58.708;50.190;2023-05-08T11:00:06;101100.97;;;10.31;21.32
54122;BME280;40029;58.708;50.190;2023-05-08T11:02:38;101082.00;;;10.21;20.88
54122;BME280;40029;58.708;50.190;2023-05-08T11:05:17;101092.31;;;10.31;21.07
54122;BME280;40029;58.708;50.190;2023-05-08T11:07:55;101137.78;;;10.65;19.92
54122;BME280;40029;58.708;50.190;2023-05-08T11:10:30;101078.38;;;9.71;19.92
54122;BME280;40029;58.708;50.190;2023-05-08T11:13:10;101124.50;;;10.23;20.42
54122;BME280;40029;58.708;50.190;2023-05-08T11:15:48;101137.72;;;10.11;20.83
54122;BME280;40029;58.708;50.190;2023-05-08T11:18:21;101140.41;;;10.64;20.45
54122;BME280;40029;58.708;50.190;2023-05-08T11:20:57;101082.41;;;9.92;21.64
54122;BME280;40029;58.708;50.190;2023-05-08T11:23:30;101145.75;;;9.93;22.18
54122;BME280;40029;58.708;50.190;2023-05-08T11:26:05;101133.69;;;9.87;22.35
54122;BME280;40029;58.708;50.190;2023-05-08T11:31:09;101140.16;;;10.22;22.21
54122;BME280;40029;58.708;50.190;2023-05-08T11:33:58;101132.19;;;10.87;21.47
54122;BME280;40029;58.708;50.190;2023-05-08T11:36:30;101088.19;;;11.16;20.35
54122;BME280;40029;58.708;50.190;2023-05-08T11:39:20;101122.06;;;12.42;19.49
54122;BME280;40029;58.708;50.190;2023-05-08T11:41:51;101124.25;;;13.58;18.62
54122;BME280;40029;58.708;50.190;2023-05-08T11:44:23;101079.69;;;13.89;16.83
54122;BME280;40029;58.708;50.190;2023-05-08T11:46:55;101129.34;;;14.50;15.99
54122;BME280;40029;58.708;50.190;2023-05-08T11:49:46;101119.34;;;14.07;15.86
54122;BME280;40029;58.708;50.190;2023-05-08T11:52:37;101113.94;;;13.83;15.52
54122;BME280;40029;58.708;50.190;2023-05-08T11:55:10;101119.09;;;13.85;15.27
54122;BME280;40029;58.708;50.190;2023-05-08T11:57:42;101077.34;;;13.80;15.39
54122;BME280;40029;58.708;50.190;2023-05-08T12:00:14;101118.44;;;13.48;15.58
54122;BME280;40029;58.708;50.190;2023-05-08T12:03:05;101119.44;;;12.77;16.09
54122;BME280;40029;58.708;50.190;2023-05-08T12:05:57;101088.84;;;12.10;17.35
54122;BME280;40029;58.708;50.190;2023-05-08T12:08:46;101109.25;;;11.94;17.86
54122;BME280;40029;58.708;50.190;2023-05-08T12:11:24;101135.09;;;11.63;18.38
54122;BME280;40029;58.708;50.190;2023-05-08T12:14:15;101132.78;;;11.49;18.11
54122;BME280;40029;58.708;50.190;2023-05-08T12:16:47;101111.69;;;11.15;17.72
54122;BME280;40029;58.708;50.190;2023-05-08T12:19:18;101120.91;;;11.33;18.71
54122;BME280;40029;58.708;50.190;2023-05-08T12:21:49;101128.50;;;11.45;18.09
54122;BME280;40029;58.708;50.190;2023-05-08T12:24:21;101133.16;;;11.31;18.70
54122;BME280;40029;58.708;50.190;2023-05-08T12:26:53;101116.31;;;11.47;18.66
54122;BME280;40029;58.708;50.190;2023-05-08T12:29:27;101099.50;;;11.15;18.12
54122;BME280;40029;58.708;50.190;2023-05-08T12:31:58;101127.56;;;11.02;18.75
54122;BME280;40029;58.708;50.190;2023-05-08T12:34:30;101125.50;;;10.72;19.08
54122;BME280;40029;58.708;50.190;2023-05-08T12:37:02;101128.72;;;10.88;19.55
54122;BME280;40029;58.708;50.190;2023-05-08T12:39:34;101148.19;;;10.65;19.68
54122;BME280;40029;58.708;50.190;2023-05-08T12:42:07;101066.28;;;10.79;18.37
54122;BME280;40029;58.708;50.190;2023-05-08T12:44:56;101093.66;;;12.28;17.22
54122;BME280;40029;58.708;50.190;2023-05-08T12:47:28;101058.44;;;13.41;15.38
54122;BME280;40029;58.708;50.190;2023-05-08T12:49:59;101066.78;;;14.38;14.47
54122;BME280;40029;58.708;50.190;2023-05-08T12:52:30;101098.31;;;15.61;13.47
54122;BME280;40029;58.708;50.190;2023-05-08T12:55:01;101104.69;;;16.01;13.26
54122;BME280;40029;58.708;50.190;2023-05-08T12:57:35;101078.63;;;16.18;12.34
54122;BME280;40029;58.708;50.190;2023-05-08T13:00:07;101109.91;;;16.89;12.17
54122;BME280;40029;58.708;50.190;2023-05-08T13:02:38;101130.88;;;16.70;10.94
54122;BME280;40029;58.708;50.190;2023-05-08T13:05:28;101126.56;;;15.06;11.90
54122;BME280;40029;58.708;50.190;2023-05-08T13:08:00;101129.50;;;13.88;12.87
54122;BME280;40029;58.708;50.190;2023-05-08T13:10:52;101126.97;;;12.90;14.21
54122;BME280;40029;58.708;50.190;2023-05-08T13:13:26;101091.34;;;12.16;15.47
54122;BME280;40029;58.708;50.190;2023-05-08T13:16:17;101135.06;;;12.08;15.38
54122;BME280;40029;58.708;50.190;2023-05-08T13:18:48;101040.44;;;11.55;15.43
54122;BME280;40029;58.708;50.190;2023-05-08T13:21:19;101126.97;;;13.24;14.41
54122;BME280;40029;58.708;50.190;2023-05-08T13:23:51;101067.97;;;13.73;13.85
54122;BME280;40029;58.708;50.190;2023-05-08T13:26:22;101072.78;;;14.68;12.60
54122;BME280;40029;58.708;50.190;2023-05-08T13:28:54;101105.16;;;15.42;11.98
54122;BME280;40029;58.708;50.190;2023-05-08T13:31:25;101094.91;;;15.59;11.82
54122;BME280;40029;58.708;50.190;2023-05-08T13:33:56;101110.75;;;15.81;12.03
54122;BME280;40029;58.708;50.190;2023-05-08T13:36:46;101074.22;;;15.50;11.78
54122;BME280;40029;58.708;50.190;2023-05-08T13:39:17;101098.06;;;15.69;11.67
54122;BME280;40029;58.708;50.190;2023-05-08T13:41:48;101123.53;;;14.93;12.62
54122;BME280;40029;58.708;50.190;2023-05-08T13:44:20;101075.72;;;14.59;12.33
54122;BME280;40029;58.708;50.190;2023-05-08T13:47:10;101125.28;;;14.93;12.19
54122;BME280;40029;58.708;50.190;2023-05-08T13:49:41;101070.78;;;14.23;12.55
54122;BME280;40029;58.708;50.190;2023-05-08T13:52:36;101097.66;;;13.10;13.95
54122;BME280;40029;58.708;50.190;2023-05-08T13:55:12;101147.50;;;12.71;14.82
54122;BME280;40029;58.708;50.190;2023-05-08T13:57:43;101164.16;;;12.30;15.68
54122;BME280;40029;58.708;50.190;2023-05-08T14:00:15;101141.19;;;12.05;15.98
54122;BME280;40029;58.708;50.190;2023-05-08T14:02:46;101159.69;;;11.96;16.46
54122;BME280;40029;58.708;50.190;2023-05-08T14:05:17;101147.09;;;11.71;17.38
54122;BME280;40029;58.708;50.190;2023-05-08T14:07:48;101146.53;;;11.57;17.26
54122;BME280;40029;58.708;50.190;2023-05-08T14:10:20;101147.16;;;11.26;17.24
54122;BME280;40029;58.708;50.190;2023-05-08T14:12:51;101138.13;;;10.95;17.44